ENNM/OSY METAR and TAF weather

Enter ICAO airport designator
Station Type Date Time Source
ENNM METAR 2019/12/11 17:20 UTC NOAA

ENNM 111720Z 04007KT CAVOK 02/M02 Q0986


Station Type Date Time Source
ENNM Decoded METAR 2019/12/11 17:20 UTC NOAA

Namsos Lufthavn, Norway (ENNM) 64-28N 011-35E 2M
Dec 11, 2019 - 12:20 PM EST / 2019.12.11 1720 UTC
Wind: from the NE (040 degrees) at 8 MPH (7 KT):0
Visibility: greater than 7 mile(s):0
Temperature: 35 F (2 C)
Windchill: 28 F (-2 C):1
Dew Point: 28 F (-2 C)
Relative Humidity: 74%
Pressure (altimeter): 29.12 in. Hg (0986 hPa)
ob: ENNM 111720Z 04007KT CAVOK 02/M02 Q0986
cycle: 17

Station Type Date Time Source
ENNM TAF UTC NOAA

Error!

Example: see airport list